Latest Weather Observations for Parkes Airport

IDN60801

Issued at 2:13 pm EDT Thursday 23 January 2020 (issued every 10 minutes, with the page automatically refreshed every 10 minutes)

About weather observations | Map of weather stations | Latest weather observations for NSW | Other Formats
Station Details ID: 065068 Name: PARKES AIRPORT AWS Lat: -33.13 Lon: 148.24 Height: 323.3 m
Data from the previous 72 hours. | See also: Recent months at Parkes Airport
Date/Time
EDT
Temp
°C
App
Temp
°C
Dew
Point
°C
Rel
Hum
%
Delta-T
°C
Wind Press
QNH
hPa
Press
MSL
hPa
Rain since
9am
mm
Dir  Spd
km/h
Gust
km/h
Spd
kts
Gust
kts
23/02:00pm 35.9 30.9 10.9 22 15.0 W 28 41 15 22 1002.6 1000.6 0.0
23/01:30pm 35.3 31.3 11.7 24 14.2 W 24 33 13 18 1002.9 1001.0 0.0
23/01:01pm 34.1 26.9 11.9 26 13.3 WNW 41 67 22 36 1002.9 1001.0 0.0
23/01:00pm 34.1 26.7 11.3 25 13.6 WNW 41 67 22 36 1002.9 1001.0 0.0
23/12:50pm 36.5 29.1 9.9 20 15.7 NW 39 57 21 31 1002.8 1000.9 0.0
23/12:48pm 37.0 29.3 10.3 20 15.8 NW 41 57 22 31 1002.6 1000.6 0.0
23/12:40pm 38.0 30.0 10.4 19 16.5 NW 43 61 23 33 1002.8 1000.9 0.0
23/12:30pm 36.8 28.7 10.2 20 15.7 NNW 43 59 23 32 1002.7 1000.7 0.0
23/12:00pm 36.9 29.2 10.2 20 15.9 NW 41 65 22 35 1003.4 1001.5 0.0
23/11:54am 36.2 27.4 9.7 20 15.5 NNW 46 65 25 35 1003.4 1001.5 0.0
23/11:47am 36.1 27.7 9.6 20 15.5 NNW 44 61 24 33 1003.4 1001.5 0.0
23/11:30am 35.7 28.5 10.7 22 14.8 NNW 39 63 21 34 1003.7 1001.8 0.0
23/11:00am 34.7 27.1 12.4 26 13.6 NNW 44 67 24 36 1003.8 1001.9 0.0
23/10:49am 34.3 26.9 12.6 27 13.2 NNW 43 63 23 34 1004.0 1002.1 0.0
23/10:41am 33.6 25.8 13.1 29 12.5 NNW 46 61 25 33 1003.9 1002.0 0.0
23/10:30am 33.7 26.1 13.7 30 12.3 NNW 46 61 25 33 1004.1 1002.2 0.0
23/10:25am 33.2 25.9 13.3 30 12.2 NNW 44 57 24 31 1003.9 1002.0 0.0
23/10:23am 32.8 25.7 13.4 30 11.9 NNW 43 61 23 33 1003.6 1001.7 0.0
23/10:02am 32.3 25.2 14.0 33 11.3 N 44 65 24 35 1003.9 1002.0 0.0
23/10:00am 32.2 25.3 13.9 33 11.3 N 43 57 23 31 1003.9 1002.0 0.0
23/09:30am 31.3 24.4 14.0 35 10.6 N 43 57 23 31 1004.0 1002.1 0.0
23/09:04am 30.3 24.1 14.8 39 9.6 N 41 59 22 32 1004.3 1002.3 0.0
23/09:00am 30.2 23.5 14.7 39 9.6 N 43 59 23 32 1004.1 1002.2 0.0
23/08:30am 29.2 22.4 14.2 40 9.2 N 43 63 23 34 1004.3 1002.3 0.0
23/08:05am 28.5 22.6 14.7 43 8.5 N 39 57 21 31 1004.4 1002.4 0.0
23/08:00am 28.3 22.3 14.5 43 8.5 N 39 54 21 29 1004.3 1002.3 0.0
23/07:32am 27.8 22.9 14.4 43 8.2 N 33 54 18 29 1003.9 1002.0 0.0
23/07:30am 27.6 22.7 14.3 44 8.1 N 33 46 18 25 1004.0 1002.1 0.0
23/07:12am 27.2 22.5 14.2 44 7.9 N 32 44 17 24 1003.9 1002.0 0.0
23/07:00am 26.9 23.0 14.3 46 7.7 N 28 37 15 20 1003.9 1002.0 0.0
23/06:46am 26.8 23.5 13.9 45 7.8 N 24 37 13 20 1003.7 1001.8 0.0
23/06:30am 25.7 22.0 11.5 41 8.2 N 22 30 12 16 1003.7 1001.8 0.0
23/06:00am 26.1 22.2 9.5 35 9.3 NNE 20 30 11 16 1003.6 1001.7 0.0
23/05:30am 24.9 19.9 4.6 27 10.3 NNE 20 26 11 14 1003.6 1001.7 0.0
23/05:00am 25.8 20.4 2.5 22 11.5 NNE 20 30 11 16 1003.5 1001.6 0.0
23/04:30am 22.4 19.1 4.5 31 8.9 NNE 11 13 6 7 1003.3 1001.4 0.0
23/04:00am 22.0 17.7 5.4 34 8.4 NNE 17 20 9 11 1003.3 1001.4 0.0
23/03:30am 23.5 19.8 4.5 29 9.6 NNE 13 15 7 8 1003.6 1001.7 0.0
23/03:00am 23.2 19.4 5.6 32 9.1 NNE 15 17 8 9 1003.9 1002.0 0.0
23/02:30am 23.3 19.3 4.8 30 9.3 NNE 15 17 8 9 1004.3 1002.3 0.0
23/02:00am 23.5 19.9 4.9 30 9.5 NNE 13 15 7 8 1004.3 1002.3 0.0
23/01:30am 23.4 20.2 4.9 30 9.4 NNE 11 13 6 7 1004.6 1002.6 0.0
23/01:00am 25.1 21.0 4.3 26 10.6 NNE 15 15 8 8 1004.9 1002.9 0.0
23/12:30am 24.8 20.7 4.5 27 10.3 NNE 15 17 8 9 1005.3 1003.3 0.0
23/12:00am 25.3 21.7 5.0 27 10.5 NNE 13 17 7 9 1005.4 1003.4 0.0
 
Date/Time
EDT
Temp
°C
App
Temp
°C
Dew
Point
°C
Rel
Hum
%
Delta-T
°C
Wind Press
QNH
hPa
Press
MSL
hPa
Rain since
9am
mm
Dir  Spd
km/h
Gust
km/h
Spd
kts
Gust
kts
22/11:30pm 26.4 22.3 4.2 24 11.3 NNE 15 17 8 9 1005.6 1003.7 0.0
22/11:00pm 25.9 22.3 4.9 26 10.8 NNE 13 15 7 8 1005.8 1003.9 0.0
22/10:30pm 26.1 22.7 5.7 27 10.7 NNE 13 15 7 8 1005.8 1003.9 0.0
22/10:00pm 26.9 23.0 5.2 25 11.3 NNE 15 19 8 10 1005.6 1003.7 0.0
22/09:30pm 26.4 22.8 6.9 29 10.4 NNE 15 17 8 9 1005.5 1003.5 0.0
22/09:00pm 28.1 24.9 5.0 23 12.1 NNE 11 15 6 8 1005.3 1003.3 0.0
22/08:30pm 29.5 26.1 4.2 20 13.1 N 11 13 6 7 1005.2 1003.2 0.0
22/08:00pm 31.0 27.0 3.1 17 14.4 N 13 17 7 9 1005.0 1003.0 0.0
22/07:30pm 33.6 28.2 1.4 13 16.4 N 19 24 10 13 1004.8 1002.8 0.0
22/07:00pm 34.5 28.7 -0.2 11 17.3 N 20 28 11 15 1004.7 1002.7 0.0
22/06:30pm 35.1 28.2 0.2 11 17.6 NNW 26 35 14 19 1004.7 1002.7 0.0
22/06:00pm 35.5 28.7 0.6 11 17.8 NNW 26 37 14 20 1005.1 1003.1 0.0
22/05:30pm 35.7 29.5 -0.6 10 18.1 N 22 33 12 18 1005.1 1003.1 0.0
22/05:00pm 35.6 29.1 0.6 11 17.8 NNW 24 35 13 19 1005.6 1003.7 0.0
22/04:30pm 36.2 29.4 1.1 11 18.0 NW 26 39 14 21 1006.0 1004.1 0.0
22/04:08pm 35.7 29.3 0.7 11 17.8 WNW 24 41 13 22 1006.2 1004.3 0.0
22/04:00pm 35.4 29.1 -0.8 10 18.0 NW 22 35 12 19 1006.5 1004.6 0.0
22/03:30pm 35.2 29.1 0.3 11 17.6 NNW 22 32 12 17 1006.9 1005.0 0.0
22/03:00pm 34.4 28.5 2.0 13 16.7 NNW 22 41 12 22 1007.4 1005.5 0.0
22/02:30pm 33.4 27.2 2.3 14 16.0 N 24 39 13 21 1008.0 1006.0 0.0
22/02:00pm 33.6 28.2 2.4 14 16.1 NNW 20 33 11 18 1008.5 1006.6 0.0
22/01:30pm 33.6 27.6 3.4 15 15.8 WNW 24 48 13 26 1009.1 1007.2 0.0
22/01:00pm 32.6 27.7 5.2 18 14.7 NW 20 35 11 19 1009.4 1007.5 0.0
22/12:30pm 31.9 26.3 5.4 19 14.2 WNW 24 32 13 17 1009.9 1008.0 0.0
22/12:23pm 33.1 27.0 6.4 19 14.7 NW 28 46 15 25 1009.9 1008.0 0.0
22/12:00pm 32.1 27.1 6.3 20 14.1 NNW 22 32 12 17 1010.1 1008.2 0.0
22/11:30am 31.3 26.1 7.1 22 13.3 NW 24 35 13 19 1010.4 1008.5 0.0
22/11:00am 31.1 26.2 6.9 22 13.3 NNW 22 39 12 21 1011.0 1009.0 0.0
22/10:30am 30.7 26.7 9.0 26 12.3 N 20 30 11 16 1011.0 1009.0 0.0
22/10:00am 29.5 25.7 9.1 28 11.5 N 19 30 10 16 1011.1 1009.2 0.0
22/09:30am 28.8 25.2 10.0 31 10.7 N 19 24 10 13 1011.2 1009.3 0.0
22/09:00am 26.9 23.2 10.2 35 9.5 NNE 20 26 11 14 1011.3 1009.4 0.0
22/08:30am 26.0 23.7 10.6 38 8.7 NNE 13 17 7 9 1011.2 1009.3 -
22/08:00am 22.5 23.9 14.4 60 4.8 CALM 0 7 0 4 1011.1 1009.2 -
22/07:30am 20.0 19.9 13.9 68 3.6 NNE 7 9 4 5 1010.9 1008.9 -
22/07:00am 17.0 16.7 14.3 84 1.6 NE 9 9 5 5 1010.5 1008.6 -
22/06:30am 16.7 16.4 13.2 80 2.0 NNE 7 9 4 5 1010.2 1008.3 -
22/06:00am 16.4 16.0 12.9 80 2.0 N 7 9 4 5 1010.0 1008.1 -
22/05:30am 16.5 15.6 12.7 78 2.1 NE 9 11 5 6 1009.7 1007.8 -
22/05:00am 16.6 16.4 13.5 82 1.8 NE 7 11 4 6 1009.5 1007.6 -
22/04:30am 16.9 16.2 13.2 79 2.1 N 9 11 5 6 1009.6 1007.7 -
22/04:00am 17.9 16.6 12.6 71 3.0 NE 11 13 6 7 1009.7 1007.8 -
22/03:30am 18.5 18.0 12.5 68 3.4 NE 7 11 4 6 1009.7 1007.8 -
22/03:00am 17.8 17.1 13.1 74 2.7 NE 9 9 5 5 1009.9 1008.0 -
22/02:30am 18.0 17.9 13.3 74 2.7 ENE 6 7 3 4 1010.0 1008.1 -
22/02:00am 19.1 18.2 12.6 66 3.7 NE 9 11 5 6 1010.0 1008.1 -
22/01:30am 18.8 18.0 13.0 69 3.3 NE 9 11 5 6 1010.1 1008.2 -
22/01:00am 19.0 18.6 13.0 68 3.4 NE 7 9 4 5 1010.3 1008.4 -
22/12:30am 19.0 - 13.4 70 3.2 - - - - - 1010.4 1008.5 -
22/12:00am 19.0 18.4 13.4 70 3.2 ENE 9 11 5 6 1010.5 1008.6 0.0
 
Date/Time
EDT
Temp
°C
App
Temp
°C
Dew
Point
°C
Rel
Hum
%
Delta-T
°C
Wind Press
QNH
hPa
Press
MSL
hPa
Rain since
9am
mm
Dir  Spd
km/h
Gust
km/h
Spd
kts
Gust
kts
21/11:30pm 20.5 19.5 13.5 64 4.1 E 11 11 6 6 1010.5 1008.6 0.0
21/11:00pm 21.1 19.8 13.8 63 4.3 E 13 13 7 7 1010.4 1008.5 0.0
21/10:30pm 21.4 20.5 13.8 62 4.5 E 11 13 6 7 1010.5 1008.6 0.0
21/10:00pm 21.8 20.7 13.2 58 5.0 ESE 11 11 6 6 1010.3 1008.4 0.0
21/09:30pm 23.2 22.3 12.5 51 6.2 SE 9 9 5 5 1010.2 1008.3 0.0
21/09:00pm 23.8 23.2 12.4 48 6.6 SSE 7 9 4 5 1010.1 1008.2 0.0
21/08:30pm 24.9 24.4 12.2 45 7.4 S 6 7 3 4 1010.0 1008.1 0.0
21/08:00pm 26.6 25.0 10.3 36 9.3 SW 9 17 5 9 1009.9 1008.0 0.0
21/07:30pm 27.4 25.4 10.2 34 9.8 SW 11 17 6 9 1009.5 1007.6 0.0
21/07:00pm 27.7 25.4 9.0 31 10.4 SSW 11 20 6 11 1009.2 1007.3 0.0
21/06:30pm 28.0 25.9 9.8 32 10.3 SW 11 19 6 10 1009.0 1007.1 0.0
21/06:00pm 28.4 25.4 10.6 33 10.2 SW 17 28 9 15 1008.8 1006.9 0.0
21/05:30pm 28.2 24.9 9.5 31 10.5 SSW 17 24 9 13 1008.8 1006.9 0.0
21/05:00pm 28.7 25.9 11.3 34 10.1 SW 17 26 9 14 1009.0 1007.1 0.0
21/04:30pm 28.0 25.0 10.7 34 9.9 SW 17 28 9 15 1009.2 1007.3 0.0
21/04:00pm 27.8 24.9 10.9 35 9.7 SW 17 26 9 14 1009.4 1007.5 0.0
21/03:30pm 26.9 23.6 11.0 37 9.1 SW 19 30 10 16 1009.7 1007.8 0.0
21/03:00pm 26.5 24.0 12.2 41 8.4 SW 17 26 9 14 1010.0 1008.1 0.0
21/02:30pm 26.2 23.9 11.9 41 8.3 SW 15 32 8 17 1010.4 1008.5 0.0
21/02:00pm 25.6 22.8 11.4 41 8.2 W 17 26 9 14 1010.6 1008.7 0.0
21/01:30pm 25.1 23.5 12.7 46 7.3 WSW 13 24 7 13 1011.1 1009.2 0.0
21/01:00pm 24.5 21.8 12.8 48 6.9 WSW 19 28 10 15 1011.5 1009.6 0.0
21/12:30pm 23.6 22.4 12.9 51 6.2 SSW 11 19 6 10 1011.8 1009.9 0.0
21/12:00pm 23.6 22.0 12.9 51 6.3 WSW 13 22 7 12 1011.9 1010.0 0.0
21/11:30am 22.7 21.2 13.2 55 5.6 W 13 26 7 14 1012.1 1010.2 0.0
21/11:00am 22.3 21.1 13.9 59 5.0 WSW 13 20 7 11 1012.0 1010.1 0.0
21/10:30am 21.7 20.5 13.9 61 4.6 SW 13 20 7 11 1011.8 1009.9 0.0
21/10:00am 20.1 19.5 13.6 66 3.8 WSW 9 13 5 7 1011.8 1009.9 0.0
21/09:30am 20.1 19.1 14.5 70 3.3 SSW 13 19 7 10 1011.5 1009.6 0.0
21/09:00am 19.2 18.3 13.8 71 3.1 SSW 11 15 6 8 1011.0 1009.0 0.0
21/08:30am 18.5 17.6 13.8 74 2.7 SSW 11 15 6 8 1010.6 1008.7 0.0
21/08:00am 17.9 16.6 13.8 77 2.4 SSW 13 17 7 9 1010.3 1008.4 0.0
21/07:30am 17.2 17.1 13.9 81 1.9 S 7 11 4 6 1009.7 1007.8 0.0
21/07:00am 15.9 17.1 13.7 87 1.3 CALM 0 0 0 0 1009.3 1007.4 0.0
21/06:30am 14.6 15.6 13.3 92 0.7 CALM 0 0 0 0 1008.8 1006.9 0.0
21/06:00am 15.1 15.7 13.1 88 1.1 ENE 2 7 1 4 1008.7 1006.8 0.0
21/05:30am 15.3 16.3 13.2 87 1.2 CALM 0 0 0 0 1008.4 1006.5 0.0
21/05:00am 15.3 15.1 13.5 89 1.0 ENE 7 7 4 4 1008.1 1006.1 0.0
21/04:30am 15.3 16.1 12.6 84 1.5 CALM 0 0 0 0 1007.9 1005.9 0.0
21/04:00am 16.3 17.3 13.2 82 1.8 CALM 0 0 0 0 1007.8 1005.8 0.0
21/03:30am 16.5 17.4 13.0 80 2.0 CALM 0 0 0 0 1007.8 1005.8 0.0
21/03:00am 16.8 17.0 13.1 79 2.1 SSW 4 9 2 5 1007.6 1005.6 0.0
21/02:30am 16.8 17.8 13.3 80 2.0 CALM 0 0 0 0 1007.6 1005.6 0.0
21/02:00am 17.3 18.4 13.4 78 2.2 CALM 0 2 0 1 1007.6 1005.6 0.0
21/01:30am 17.9 18.9 13.2 74 2.7 CALM 0 0 0 0 1007.4 1005.5 0.0
21/01:00am 18.3 19.0 12.3 68 3.4 CALM 0 0 0 0 1007.4 1005.5 0.0
21/12:30am 18.5 18.9 12.5 68 3.4 SSW 2 7 1 4 1007.3 1005.4 0.0
21/12:00am 19.2 18.0 12.7 66 3.7 SW 11 13 6 7 1007.4 1005.5 0.0
 
Date/Time
EDT
Temp
°C
App
Temp
°C
Dew
Point
°C
Rel
Hum
%
Delta-T
°C
Wind Press
QNH
hPa
Press
MSL
hPa
Rain since
9am
mm
Dir  Spd
km/h
Gust
km/h
Spd
kts
Gust
kts
20/11:30pm 19.9 18.3 12.7 63 4.1 WSW 13 17 7 9 1007.2 1005.3 0.0
20/11:00pm 20.7 19.9 12.9 61 4.5 WSW 9 20 5 11 1007.0 1005.1 0.0
20/10:30pm 19.6 21.5 15.7 78 2.3 CALM 0 0 0 0 1006.8 1004.9 0.0
20/10:00pm 20.0 21.9 15.8 77 2.5 CALM 0 0 0 0 1006.5 1004.6 0.0
20/09:30pm 20.7 22.6 15.7 73 3.0 CALM 0 0 0 0 1006.1 1004.2 0.0
20/09:00pm 20.9 22.6 15.2 70 3.4 CALM 0 0 0 0 1005.6 1003.7 0.0
20/08:30pm 21.7 21.9 14.8 65 4.1 E 7 9 4 5 1005.1 1003.1 0.0
20/08:00pm 22.3 22.7 15.4 65 4.2 ENE 7 9 4 5 1004.7 1002.7 0.0
20/07:30pm 22.6 23.1 13.9 58 5.1 E 4 7 2 4 1004.3 1002.3 0.0
20/07:00pm 23.0 22.9 14.0 57 5.4 S 7 11 4 6 1004.1 1002.2 0.0
20/06:30pm 23.4 19.4 11.8 48 6.6 WSW 24 32 13 17 1004.0 1002.1 0.0
20/06:00pm 24.4 18.9 11.7 45 7.3 WSW 32 56 17 30 1003.5 1001.6 0.0
20/05:56pm 25.7 21.8 10.7 39 8.5 WSW 22 56 12 30 1003.4 1001.5 0.0
20/05:30pm 26.6 24.2 9.9 35 9.4 W 13 32 7 17 1003.2 1001.3 0.0
20/05:00pm 27.3 23.2 10.1 34 9.8 SW 22 32 12 17 1003.4 1001.5 0.0
20/04:30pm 26.9 22.9 10.6 36 9.3 WSW 22 35 12 19 1003.7 1001.8 0.0
20/04:00pm 26.6 22.7 10.7 37 9.1 SW 22 35 12 19 1003.7 1001.8 0.0
20/03:30pm 26.5 22.4 11.4 39 8.7 WSW 24 41 13 22 1003.8 1001.9 0.0
20/03:00pm 26.1 21.4 10.7 38 8.8 WSW 26 50 14 27 1003.8 1001.9 0.0
20/02:30pm 26.2 22.8 12.6 43 8.0 WSW 22 35 12 19 1003.7 1001.8 0.0

Other formats

Comma delimited format used in spreadsheet applications
http://www.bom.gov.au/fwo/IDN60801/IDN60801.95717.axf

JavaScript Object Notation format (JSON) in row-major order
http://www.bom.gov.au/fwo/IDN60801/IDN60801.95717.json

Data quality

Most of these data are generated automatically and are frequently updated. Quality checks on data are not normally performed. It is possible for incorrect values to appear. Refer to information at About Latest Weather Observations and please check the disclaimer before using these data.